Time;durP1;ratioP1;P1;durP2;ratioP2;P2;SDS_P1;SDS_P2;PMS_P1;PMS_P2;Temp;Humidity;BMP_temperature;BMP_pressure;BME280_temperature;BME280_humidity;BME280_pressure;Samples;Min_cycle;Max_cycle;Signal;HPM_P1;HPM_P2
2022/01/06 00:01:17;;;;;;;37.28;17.70;;;;;;;4.04;100.00;96281.00;5007245;28;20046;-63
2022/01/06 00:03:45;;;;;;;37.78;16.60;;;;;;;3.95;100.00;96282.28;5007386;28;20057;-72
2022/01/06 00:06:12;;;;;;;27.27;13.68;;;;;;;3.87;100.00;96270.31;5007183;28;20090;-68
2022/01/06 00:08:40;;;;;;;21.58;11.57;;;;;;;3.97;100.00;96290.94;5005722;28;20171;-62
2022/01/06 00:11:09;;;;;;;27.40;12.18;;;;;;;3.86;100.00;96293.38;5007208;28;20054;-63
2022/01/06 00:24:20;;;;;;;39.92;17.67;;;;;;;3.23;100.00;96261.28;5006096;28;20064;-63
2022/01/06 00:26:48;;;;;;;40.80;17.25;;;;;;;3.09;100.00;96238.94;5005137;28;20050;-63
2022/01/06 00:29:16;;;;;;;32.63;16.10;;;;;;;3.59;100.00;96310.50;5006021;28;20060;-72
2022/01/06 00:31:43;;;;;;;32.60;14.95;;;;;;;2.96;100.00;96229.13;5006596;28;20434;-63
2022/01/06 00:34:10;;;;;;;28.80;13.90;;;;;;;2.97;100.00;96245.19;5006460;28;20084;-62
2022/01/06 00:36:38;;;;;;;28.88;12.95;;;;;;;3.23;100.00;96310.53;5006370;28;20050;-72
2022/01/06 00:39:06;;;;;;;21.35;11.27;;;;;;;2.51;100.00;96212.00;5005375;28;20608;-63
2022/01/06 00:41:34;;;;;;;28.58;13.85;;;;;;;3.15;100.00;96303.22;5007605;28;20045;-72
2022/01/06 00:44:03;;;;;;;24.35;12.63;;;;;;;3.03;100.00;96308.69;5026100;28;20049;-62
2022/01/06 00:46:30;;;;;;;24.73;13.23;;;;;;;2.94;100.00;96305.25;5026043;28;20049;-64
2022/01/06 00:48:57;;;;;;;31.70;14.35;;;;;;;3.12;100.00;96320.31;5025619;28;20054;-71
2022/01/06 00:51:24;;;;;;;35.38;15.40;;;;;;;3.14;100.00;96329.00;5026095;28;20084;-70
2022/01/06 00:53:50;;;;;;;42.00;17.73;;;;;;;3.26;100.00;96325.47;5025634;28;20057;-63
2022/01/06 00:56:17;;;;;;;41.25;18.20;;;;;;;3.32;100.00;96318.63;5024429;28;20053;-63
2022/01/06 00:58:44;;;;;;;38.45;17.67;;;;;;;3.35;100.00;96307.78;5024634;28;20061;-62
2022/01/06 01:01:11;;;;;;;36.65;17.80;;;;;;;3.29;100.00;96314.63;5024320;28;20050;-71
2022/01/06 01:03:37;;;;;;;32.22;16.40;;;;;;;2.98;100.00;96265.13;5025912;28;20049;-72
2022/01/06 01:06:04;;;;;;;30.85;16.00;;;;;;;2.56;100.00;96198.13;5026307;28;20516;-71
2022/01/06 01:08:34;;;;;;;39.25;18.90;;;;;;;3.28;100.00;96307.56;5024185;28;20053;-72
2022/01/06 01:11:01;;;;;;;67.07;33.38;;;;;;;3.19;100.00;96300.59;5025508;28;20099;-70
2022/01/06 01:13:31;;;;;;;45.25;21.95;;;;;;;2.65;100.00;96234.34;4906719;28;5002612;-71
2022/01/06 01:16:08;;;;;;;29.05;13.88;;;;;;;2.97;100.00;96288.94;4965328;28;20061;-71
2022/01/06 01:18:35;;;;;;;35.35;14.48;;;;;;;3.13;100.00;96298.09;5024224;28;20068;-64
2022/01/06 01:21:02;;;;;;;29.38;13.45;;;;;;;3.23;100.00;96305.03;5024916;28;20064;-71
2022/01/06 01:23:28;;;;;;;34.00;14.98;;;;;;;3.23;100.00;96302.31;5025360;28;20247;-71
2022/01/06 01:25:56;;;;;;;33.22;14.73;;;;;;;3.17;100.00;96295.47;5025007;28;20049;-63
2022/01/06 01:28:31;;;;;;;32.08;16.33;;;;;;;3.15;100.00;96314.16;5025373;28;20053;-64
2022/01/06 01:33:30;;;;;;;35.60;15.95;;;;;;;3.22;100.00;96283.50;5025581;28;20053;-63
2022/01/06 01:35:57;;;;;;;35.08;16.15;;;;;;;3.24;100.00;96284.75;5023744;28;20053;-71
2022/01/06 01:38:24;;;;;;;30.20;14.40;;;;;;;3.01;100.00;96264.44;5024928;28;20045;-63
2022/01/06 01:40:51;;;;;;;35.10;14.07;;;;;;;3.13;100.00;96288.28;5024575;28;20450;-69
2022/01/06 01:43:17;;;;;;;41.75;15.65;;;;;;;2.95;100.00;96239.28;5008933;28;20049;-63
2022/01/06 01:45:46;;;;;;;28.98;13.98;;;;;;;2.92;100.00;96282.91;5005079;28;20061;-63
2022/01/06 01:48:22;;;;;;;32.33;14.15;;;;;;;2.71;100.00;96271.25;5003989;28;20058;-71
2022/01/06 01:50:49;;;;;;;35.47;17.30;;;;;;;2.45;100.00;96224.28;5004378;28;20890;-71
2022/01/06 01:53:16;;;;;;;42.58;19.08;;;;;;;2.92;100.00;96266.50;5004731;28;20064;-63
2022/01/06 01:55:43;;;;;;;50.35;24.95;;;;;;;2.92;100.00;96280.19;5004800;28;20054;-71
2022/01/06 01:58:11;;;;;;;40.47;20.48;;;;;;;2.91;100.00;96270.34;5003161;28;20134;-63
2022/01/06 02:00:38;;;;;;;53.53;25.92;;;;;;;2.79;100.00;96267.63;5003301;28;20515;-69
2022/01/06 02:03:06;;;;;;;56.22;27.15;;;;;;;1.66;100.00;96082.63;5004703;28;20057;-71
2022/01/06 02:05:33;;;;;;;52.38;25.98;;;;;;;2.60;100.00;96253.69;5004562;28;20045;-72
2022/01/06 02:08:00;;;;;;;50.83;22.13;;;;;;;2.18;100.00;96219.44;5003467;28;20061;-70
2022/01/06 02:10:28;;;;;;;48.40;22.52;;;;;;;2.15;100.00;96198.25;5004693;28;20060;-64
2022/01/06 02:12:57;;;;;;;46.90;21.88;;;;;;;2.54;100.00;96255.03;5004731;28;20099;-63
2022/01/06 02:15:24;;;;;;;46.20;21.92;;;;;;;2.73;100.00;96279.91;5004647;28;20504;-63
2022/01/06 02:17:51;;;;;;;36.58;18.20;;;;;;;1.14;100.00;96076.88;5004447;28;20048;-69
2022/01/06 02:20:20;;;;;;;37.92;18.15;;;;;;;2.58;100.00;96264.16;5003948;28;20062;-70
2022/01/06 02:22:48;;;;;;;35.90;18.92;;;;;;;2.76;100.00;96290.19;5003252;28;20503;-71
2022/01/06 02:25:19;;;;;;;38.72;19.10;;;;;;;2.62;100.00;96256.88;5003089;28;20061;-70
2022/01/06 02:27:49;;;;;;;40.72;19.13;;;;;;;2.80;100.00;96271.94;5004711;28;20056;-72
2022/01/06 02:30:17;;;;;;;43.45;20.08;;;;;;;2.77;100.00;96269.88;5003193;28;20057;-63
2022/01/06 02:32:44;;;;;;;40.22;18.35;;;;;;;2.70;100.00;96247.78;5005060;28;20069;-70
2022/01/06 02:35:13;;;;;;;38.50;18.42;;;;;;;2.71;100.00;96265.78;5004152;28;20065;-71
2022/01/06 02:37:40;;;;;;;32.47;14.73;;;;;;;2.78;100.00;96277.75;5004342;28;20054;-71
2022/01/06 02:40:12;;;;;;;30.50;11.88;;;;;;;2.84;100.00;96283.81;5004115;28;20046;-72
2022/01/06 02:42:41;;;;;;;34.03;13.18;;;;;;;2.87;100.00;96280.41;5012350;28;20516;-63
2022/01/06 02:45:09;;;;;;;33.75;15.85;;;;;;;2.92;100.00;96277.44;5023881;28;20061;-71
2022/01/06 02:47:35;;;;;;;41.38;17.77;;;;;;;2.84;100.00;96281.88;5024289;28;20071;-70
2022/01/06 02:50:05;;;;;;;40.85;18.20;;;;;;;2.79;100.00;96284.03;5024264;28;20056;-62
2022/01/06 02:52:31;;;;;;;41.35;18.00;;;;;;;2.64;100.00;96276.50;5024029;28;20428;-71
2022/01/06 02:54:58;;;;;;;42.47;19.38;;;;;;;2.67;100.00;96264.88;5022567;28;20054;-63
2022/01/06 02:57:25;;;;;;;37.75;19.00;;;;;;;2.70;100.00;96264.97;5023848;28;20172;-63
2022/01/06 02:59:52;;;;;;;26.88;12.73;;;;;;;2.62;100.00;96262.34;5023845;28;20064;-71
2022/01/06 03:02:19;;;;;;;25.42;12.48;;;;;;;2.59;100.00;96263.03;5024171;28;20631;-63
2022/01/06 03:04:45;;;;;;;21.10;9.90;;;;;;;2.60;100.00;96265.44;5023676;28;20045;-63
2022/01/06 03:07:12;;;;;;;20.52;9.55;;;;;;;2.58;100.00;96255.94;5023907;28;20045;-64
2022/01/06 03:09:41;;;;;;;22.60;10.20;;;;;;;-0.02;100.00;95859.25;5023476;28;20049;-63
2022/01/06 03:12:18;;;;;;;22.42;11.23;;;;;;;2.32;100.00;96228.91;5023172;28;20529;-71
2022/01/06 03:14:45;;;;;;;29.60;14.45;;;;;;;2.28;100.00;96222.53;5022210;28;20054;-71
2022/01/06 03:17:12;;;;;;;31.35;13.88;;;;;;;2.55;100.00;96278.50;5023890;28;20060;-64
2022/01/06 03:19:38;;;;;;;26.98;13.23;;;;;;;2.52;100.00;96279.16;5023135;28;20527;-63
2022/01/06 03:22:05;;;;;;;29.58;12.98;;;;;;;2.39;100.00;96264.69;5023630;28;20064;-64
2022/01/06 03:24:32;;;;;;;36.00;15.18;;;;;;;1.90;100.00;96196.56;5022101;28;20049;-72
2022/01/06 03:26:59;;;;;;;32.17;13.60;;;;;;;2.38;100.00;96290.41;5023669;28;20532;-72
2022/01/06 03:29:26;;;;;;;29.55;13.57;;;;;;;2.37;100.00;96293.47;5023658;28;20052;-63
2022/01/06 03:31:53;;;;;;;27.27;11.88;;;;;;;2.38;100.00;96290.41;5022974;28;20049;-69
2022/01/06 03:34:19;;;;;;;30.50;13.73;;;;;;;2.45;100.00;96290.66;5023162;28;20057;-62
2022/01/06 03:36:46;;;;;;;40.72;18.17;;;;;;;2.55;100.00;96289.44;5023365;28;20080;-63
2022/01/06 03:39:13;;;;;;;52.42;19.33;;;;;;;2.54;100.00;96287.84;5022167;28;20060;-70
2022/01/06 03:41:39;;;;;;;130.10;30.65;;;;;;;2.48;100.00;96286.47;5022256;28;20046;-64
2022/01/06 03:44:06;;;;;;;157.73;34.38;;;;;;;1.62;100.00;96179.97;5003719;28;20046;-70
2022/01/06 03:46:33;;;;;;;115.50;29.92;;;;;;;2.40;100.00;96292.81;5002914;28;20058;-63
2022/01/06 03:49:00;;;;;;;66.68;20.85;;;;;;;2.24;100.00;96280.91;5002347;28;20132;-69
2022/01/06 03:51:26;;;;;;;54.65;18.55;;;;;;;2.32;100.00;96297.22;5004008;28;20520;-71
2022/01/06 03:53:53;;;;;;;75.25;19.98;;;;;;;2.34;100.00;96299.63;5003394;28;20350;-70
2022/01/06 03:56:20;;;;;;;43.70;17.33;;;;;;;2.07;100.00;96300.19;5003873;28;20054;-71
2022/01/06 03:58:48;;;;;;;44.72;17.98;;;;;;;1.88;100.00;96272.56;5002299;28;20058;-63
2022/01/06 04:01:16;;;;;;;49.17;17.30;;;;;;;1.95;100.00;96295.44;5003953;28;20560;-63
2022/01/06 04:03:46;;;;;;;44.58;15.98;;;;;;;2.07;100.00;96294.72;5004043;28;20168;-71
2022/01/06 04:06:13;;;;;;;41.63;16.83;;;;;;;2.15;100.00;96307.50;5005088;28;20053;-63
2022/01/06 04:08:40;;;;;;;41.95;17.50;;;;;;;1.74;100.00;96258.38;5006857;28;20057;-69
2022/01/06 04:11:06;;;;;;;48.13;18.42;;;;;;;2.01;100.00;96290.59;5005691;28;20045;-71
2022/01/06 04:13:34;;;;;;;48.03;17.33;;;;;;;2.02;100.00;96303.09;5006683;28;20054;-66
2022/01/06 04:16:07;;;;;;;45.42;17.35;;;;;;;1.80;100.00;96255.13;5005152;28;20046;-71
2022/01/06 04:18:35;;;;;;;87.00;33.55;;;;;;;1.79;100.00;96258.19;5006574;28;20096;-63
2022/01/06 04:21:02;;;;;;;64.07;23.85;;;;;;;2.12;100.00;96330.03;5006330;28;20062;-63
2022/01/06 04:23:29;;;;;;;45.13;20.52;;;;;;;2.17;100.00;96299.75;5005900;28;20054;-72
2022/01/06 04:25:56;;;;;;;49.70;20.35;;;;;;;2.20;100.00;96310.00;5006814;28;20425;-70
2022/01/06 04:28:23;;;;;;;118.45;39.60;;;;;;;2.08;100.00;96290.84;5006908;28;20049;-72
2022/01/06 04:30:50;;;;;;;118.85;41.10;;;;;;;2.10;100.00;96310.44;5014756;28;20053;-71
2022/01/06 04:33:17;;;;;;;87.88;30.40;;;;;;;2.13;100.00;96299.66;5024775;28;20055;-71
2022/01/06 04:35:43;;;;;;;46.38;18.73;;;;;;;2.17;100.00;96307.94;5025808;28;20045;-72
2022/01/06 04:38:10;;;;;;;34.45;13.18;;;;;;;2.05;100.00;96291.53;5024878;28;20053;-63
2022/01/06 04:40:37;;;;;;;39.40;15.85;;;;;;;2.10;100.00;96300.31;5025827;28;20083;-72
2022/01/06 04:43:05;;;;;;;65.30;25.92;;;;;;;2.12;100.00;96313.63;5026116;28;20068;-63
2022/01/06 04:45:31;;;;;;;77.90;29.77;;;;;;;1.97;100.00;96323.22;5025907;28;20554;-63
2022/01/06 04:47:58;;;;;;;66.60;28.80;;;;;;;2.05;100.00;96308.72;5025947;28;20531;-71
2022/01/06 04:50:25;;;;;;;79.25;31.20;;;;;;;1.51;100.00;96250.50;5024201;28;20064;-65
2022/01/06 04:52:51;;;;;;;109.88;40.78;;;;;;;1.89;100.00;96298.72;5026301;28;20076;-71
2022/01/06 04:55:18;;;;;;;81.75;34.65;;;;;;;1.93;100.00;96321.50;5025599;28;20064;-62
2022/01/06 04:57:44;;;;;;;69.18;29.85;;;;;;;2.02;100.00;96327.69;5024620;28;20049;-72
2022/01/06 05:00:12;;;;;;;88.05;33.05;;;;;;;1.84;100.00;96328.94;5024330;28;20069;-71
2022/01/06 05:02:38;;;;;;;74.38;30.90;;;;;;;1.88;100.00;96335.34;5026120;28;20060;-71
2022/01/06 05:05:05;;;;;;;68.00;27.48;;;;;;;1.77;100.00;96307.63;5025752;28;20111;-63
2022/01/06 05:07:32;;;;;;;62.63;27.05;;;;;;;1.86;100.00;96321.22;5026047;28;20046;-72
2022/01/06 05:09:59;;;;;;;62.63;22.27;;;;;;;1.84;100.00;96323.47;5023787;28;20056;-63
2022/01/06 05:12:26;;;;;;;63.45;25.10;;;;;;;1.91;100.00;96326.50;5024794;28;20500;-71
2022/01/06 05:14:52;;;;;;;71.70;26.85;;;;;;;1.81;100.00;96297.66;5025286;28;20057;-63
2022/01/06 05:17:19;;;;;;;59.55;26.60;;;;;;;1.97;100.00;96338.81;5023676;28;20045;-63
2022/01/06 05:19:45;;;;;;;58.47;28.33;;;;;;;2.02;100.00;96322.22;5023585;28;20057;-63
2022/01/06 05:22:12;;;;;;;83.10;36.47;;;;;;;2.00;100.00;96332.69;5025633;28;20064;-63
2022/01/06 05:24:39;;;;;;;160.05;70.65;;;;;;;1.92;100.00;96336.25;5025162;28;20057;-71
2022/01/06 05:27:10;;;;;;;142.20;59.75;;;;;;;1.94;100.00;96334.81;5023613;28;20053;-72
2022/01/06 05:29:38;;;;;;;147.27;65.38;;;;;;;1.65;100.00;96299.38;5024627;28;20508;-73
2022/01/06 05:32:05;;;;;;;129.45;58.72;;;;;;;1.72;100.00;96304.31;5025351;28;20136;-63
2022/01/06 05:34:32;;;;;;;74.85;35.33;;;;;;;1.99;100.00;96331.09;5024785;28;20064;-72
2022/01/06 05:36:59;;;;;;;79.28;34.72;;;;;;;1.94;100.00;96342.19;5009442;28;20295;-63
2022/01/06 05:39:26;;;;;;;84.03;34.33;;;;;;;1.96;100.00;96329.81;5043079;28;20057;-63
2022/01/06 05:41:52;;;;;;;92.20;37.83;;;;;;;1.96;100.00;96353.59;5042323;28;20050;-63
2022/01/06 05:44:19;;;;;;;98.20;38.70;;;;;;;1.95;100.00;96344.59;5024934;28;20061;-63
2022/01/06 05:46:47;;;;;;;96.35;37.53;;;;;;;1.97;100.00;96347.81;5019141;28;20046;-63
2022/01/06 05:49:15;;;;;;;81.63;33.17;;;;;;;1.94;100.00;96340.28;5034869;28;20498;-63
2022/01/06 05:51:42;;;;;;;75.20;30.48;;;;;;;1.98;100.00;96346.66;5025148;28;20511;-73
2022/01/06 05:54:09;;;;;;;89.07;36.40;;;;;;;1.92;100.00;96339.81;5024777;28;20057;-72
2022/01/06 05:56:36;;;;;;;108.25;41.85;;;;;;;1.95;100.00;96346.53;5023135;28;20475;-71
2022/01/06 05:59:03;;;;;;;87.13;39.42;;;;;;;2.13;100.00;96353.47;5024551;28;20053;-73
2022/01/06 06:01:29;;;;;;;109.03;47.35;;;;;;;2.09;100.00;96342.41;5024803;28;20053;-74
2022/01/06 06:03:57;;;;;;;102.55;46.63;;;;;;;1.88;100.00;96313.50;5022814;28;20049;-72
2022/01/06 06:06:23;;;;;;;95.43;44.20;;;;;;;2.20;100.00;96359.19;5024755;28;20046;-71
2022/01/06 06:08:50;;;;;;;89.45;41.05;;;;;;;1.91;100.00;96299.19;5024681;28;20530;-72
2022/01/06 06:11:17;;;;;;;80.95;37.38;;;;;;;2.13;100.00;96304.31;5023103;28;20068;-71
2022/01/06 06:13:43;;;;;;;69.18;33.85;;;;;;;2.44;100.00;96348.38;5024521;28;20061;-73
2022/01/06 06:16:11;;;;;;;57.55;26.95;;;;;;;2.17;100.00;96306.03;5024112;28;20060;-63
2022/01/06 06:18:38;;;;;;;54.75;25.63;;;;;;;2.48;100.00;96354.78;5024512;28;20150;-71
2022/01/06 06:21:06;;;;;;;51.40;23.10;;;;;;;2.47;100.00;96350.44;5022578;28;20057;-72
2022/01/06 06:23:33;;;;;;;68.85;26.80;;;;;;;1.90;100.00;96262.09;5022618;28;20052;-64
2022/01/06 06:25:59;;;;;;;88.05;36.30;;;;;;;2.51;100.00;96343.19;5024459;28;20045;-64
2022/01/06 06:28:26;;;;;;;78.22;38.30;;;;;;;2.50;100.00;96360.69;5024045;28;20049;-72
2022/01/06 06:30:53;;;;;;;72.88;34.45;;;;;;;2.47;100.00;96364.09;5024035;28;20057;-70
2022/01/06 06:33:20;;;;;;;75.22;32.33;;;;;;;2.26;100.00;96363.34;5024111;28;20057;-63
2022/01/06 06:35:46;;;;;;;71.20;32.50;;;;;;;2.50;100.00;96368.88;5024136;28;20054;-64
2022/01/06 06:38:13;;;;;;;55.70;26.90;;;;;;;2.23;100.00;96312.09;5022623;28;20065;-68
2022/01/06 06:40:40;;;;;;;70.07;28.90;;;;;;;2.64;100.00;96342.09;5024101;28;20049;-71
2022/01/06 06:43:14;;;;;;;45.45;23.13;;;;;;;2.74;100.00;96358.06;5033693;28;20048;-63
2022/01/06 06:45:41;;;;;;;65.82;29.15;;;;;;;2.51;98.45;96321.31;5043284;28;20053;-70
2022/01/06 06:48:09;;;;;;;56.35;26.70;;;;;;;2.38;100.00;96327.84;5043600;28;20373;-63
2022/01/06 06:50:36;;;;;;;46.90;23.73;;;;;;;2.39;100.00;96323.97;5041270;28;20057;-71
2022/01/06 06:53:03;;;;;;;52.30;23.50;;;;;;;2.85;100.00;96379.19;5043491;28;20493;-63
2022/01/06 06:55:31;;;;;;;59.78;24.83;;;;;;;3.00;100.00;96388.69;5043163;28;20057;-72
2022/01/06 06:57:57;;;;;;;47.30;20.50;;;;;;;2.66;100.00;96350.75;5043821;28;20049;-70
2022/01/06 07:00:24;;;;;;;37.47;18.58;;;;;;;2.21;100.00;96274.19;5028384;28;20045;-67
2022/01/06 07:02:51;;;;;;;37.40;17.38;;;;;;;2.08;100.00;96236.22;5012754;28;20049;-60
2022/01/06 07:05:19;;;;;;;30.63;15.05;;;;;;;2.66;100.00;96317.94;5016726;28;20038;-62
2022/01/06 07:07:45;;;;;;;51.50;23.58;;;;;;;2.19;100.00;96215.56;5015261;28;20061;-63
2022/01/06 07:10:13;;;;;;;79.05;34.40;;;;;;;3.14;100.00;96350.88;5028726;28;20858;-61
2022/01/06 07:12:40;;;;;;;74.30;32.78;;;;;;;3.34;97.67;96388.28;5014501;28;20053;-67
2022/01/06 07:15:09;;;;;;;73.75;32.50;;;;;;;3.11;97.98;96395.34;5021018;28;20062;-67
2022/01/06 07:17:37;;;;;;;52.30;25.20;;;;;;;3.61;97.19;96393.13;5009031;28;20053;-71
2022/01/06 07:20:05;;;;;;;48.63;21.83;;;;;;;3.54;97.59;96398.34;5028648;28;20156;-62
2022/01/06 07:22:32;;;;;;;32.50;16.48;;;;;;;3.72;99.09;96487.38;5030113;28;20053;-68
2022/01/06 07:25:01;;;;;;;27.77;14.25;;;;;;;3.89;98.13;96404.19;5021588;28;20136;-64
2022/01/06 07:27:28;;;;;;;31.80;16.08;;;;;;;4.12;98.24;96408.06;5021847;28;20046;-64
2022/01/06 07:29:54;;;;;;;39.55;17.80;;;;;;;3.60;99.29;96303.91;5023026;28;20076;-63
2022/01/06 07:32:21;;;;;;;49.85;21.17;;;;;;;4.41;98.40;96400.34;5023029;28;20053;-63
2022/01/06 07:34:48;;;;;;;42.25;20.27;;;;;;;3.59;97.58;96261.22;5012600;28;20057;-65
2022/01/06 07:37:14;;;;;;;39.30;19.80;;;;;;;4.84;97.62;96401.59;5008432;28;20058;-64
2022/01/06 07:39:41;;;;;;;43.42;23.92;;;;;;;4.41;96.26;96318.09;5023575;28;20084;-63
2022/01/06 07:42:08;;;;;;;117.65;52.70;;;;;;;4.74;95.79;96339.00;5020872;28;20050;-61
2022/01/06 07:44:35;;;;;;;103.68;46.60;;;;;;;4.51;94.88;96284.69;5006634;28;20145;-61
2022/01/06 07:47:02;;;;;;;91.38;42.22;;;;;;;4.88;93.15;96309.19;5006173;28;20053;-62
2022/01/06 07:49:29;;;;;;;71.38;33.67;;;;;;;4.47;93.63;96245.41;5006765;28;20536;-64
2022/01/06 07:51:56;;;;;;;87.38;44.33;;;;;;;5.37;93.23;96343.44;5006635;28;20410;-61
2022/01/06 07:54:23;;;;;;;76.35;39.30;;;;;;;5.53;93.14;96385.44;5009070;28;20065;-62
2022/01/06 07:56:50;;;;;;;66.15;31.38;;;;;;;4.92;94.20;96294.41;5037189;28;20050;-63
2022/01/06 07:59:17;;;;;;;59.75;28.80;;;;;;;5.76;93.00;96389.94;5015555;28;20077;-64
2022/01/06 08:01:43;;;;;;;50.58;22.95;;;;;;;4.97;94.64;96307.09;5007875;28;20061;-62
2022/01/06 08:04:11;;;;;;;38.22;17.45;;;;;;;5.19;97.94;96402.56;5022742;28;20061;-61
2022/01/06 08:06:37;;;;;;;40.45;21.15;;;;;;;5.33;100.00;96405.69;5025113;28;20068;-66
2022/01/06 08:09:04;;;;;;;32.63;17.23;;;;;;;3.75;97.26;96091.53;5025075;28;20053;-63
2022/01/06 08:11:31;;;;;;;39.33;18.90;;;;;;;5.70;95.28;96382.31;5018669;28;20050;-63
2022/01/06 08:13:58;;;;;;;40.78;20.08;;;;;;;5.73;96.42;96417.31;5009857;28;20056;-61
2022/01/06 08:16:24;;;;;;;34.63;16.73;;;;;;;5.54;97.13;96348.56;5026417;28;20059;-63
2022/01/06 08:18:54;;;;;;;37.45;17.00;;;;;;;6.17;94.53;96388.59;5025355;28;20376;-64
2022/01/06 08:21:21;;;;;;;37.50;20.05;;;;;;;4.55;93.06;96068.97;5026263;28;20526;-67
2022/01/06 08:23:47;;;;;;;33.60;17.63;;;;;;;6.69;90.19;96372.47;5011317;28;20629;-65
2022/01/06 08:26:15;;;;;;;28.77;15.45;;;;;;;6.94;89.33;96401.28;5010919;28;20140;-61
2022/01/06 08:28:46;;;;;;;34.38;17.80;;;;;;;7.39;89.25;96420.69;5024009;28;20054;-65
2022/01/06 08:31:14;;;;;;;39.00;19.58;;;;;;;7.37;87.77;96378.91;5026288;28;20049;-63
2022/01/06 08:33:41;;;;;;;37.95;19.23;;;;;;;7.15;85.58;96332.88;5025628;28;20060;-63
2022/01/06 08:36:08;;;;;;;30.60;16.52;;;;;;;7.95;84.63;96428.38;5015937;28;20049;-67
2022/01/06 08:38:35;;;;;;;24.70;13.93;;;;;;;8.18;83.25;96427.19;5009959;28;20064;-63
2022/01/06 08:41:02;;;;;;;27.45;13.50;;;;;;;7.73;82.27;96388.59;5011193;28;20587;-63
2022/01/06 08:43:29;;;;;;;26.80;14.18;;;;;;;7.53;82.16;96313.47;5025706;28;20052;-65
2022/01/06 08:45:56;;;;;;;30.65;14.07;;;;;;;8.61;80.95;96445.22;5025797;28;20046;-65
2022/01/06 08:48:27;;;;;;;28.17;15.13;;;;;;;7.87;84.85;96393.56;5023990;28;20148;-66
2022/01/06 08:50:54;;;;;;;30.25;14.10;;;;;;;8.40;83.57;96431.09;5014432;28;20053;-63
2022/01/06 08:53:22;;;;;;;26.52;13.63;;;;;;;8.57;83.36;96433.31;5024075;28;20053;-66
2022/01/06 08:55:50;;;;;;;21.40;12.55;;;;;;;8.65;82.59;96435.03;5024340;28;20053;-63
2022/01/06 08:58:17;;;;;;;27.15;13.13;;;;;;;8.51;83.30;96412.72;5021395;28;20609;-66
2022/01/06 09:00:44;;;;;;;23.55;13.40;;;;;;;8.85;83.27;96439.28;5025332;28;20042;-63
2022/01/06 09:03:11;;;;;;;35.38;21.90;;;;;;;8.41;82.89;96319.56;5024927;28;20054;-66
2022/01/06 09:05:38;;;;;;;35.25;16.48;;;;;;;7.45;81.75;96157.47;5017989;28;20054;-64
2022/01/06 09:08:06;;;;;;;26.83;14.35;;;;;;;9.65;80.86;96449.72;5003841;28;20056;-68
2022/01/06 09:10:37;;;;;;;30.88;14.52;;;;;;;9.64;79.24;96423.25;5020345;28;20069;-66
2022/01/06 09:13:24;;;;;;;21.33;12.55;;;;;;;8.97;79.92;96353.41;5028275;28;20053;-63
2022/01/06 09:15:50;;;;;;;19.20;11.30;;;;;;;8.70;84.46;96420.91;5019321;28;20060;-61
2022/01/06 09:18:17;;;;;;;23.05;12.18;;;;;;;7.85;83.65;96219.44;5015388;28;20053;-62
2022/01/06 09:20:44;;;;;;;19.60;10.55;;;;;;;9.26;83.21;96416.13;5012011;28;20060;-63
2022/01/06 09:23:11;;;;;;;16.58;10.55;;;;;;;8.63;80.44;96271.75;5009862;28;20145;-62
2022/01/06 09:25:38;;;;;;;20.52;11.05;;;;;;;9.48;80.06;96386.75;5009617;28;20053;-63
2022/01/06 09:28:04;;;;;;;18.50;10.60;;;;;;;9.68;78.86;96411.03;5019377;28;20046;-63
2022/01/06 09:30:31;;;;;;;28.33;13.63;;;;;;;8.67;80.83;96289.94;5016532;28;20521;-63
2022/01/06 09:32:58;;;;;;;25.55;12.82;;;;;;;9.40;82.04;96410.75;5004625;28;20053;-61
2022/01/06 09:35:24;;;;;;;31.35;16.67;;;;;;;8.88;81.69;96328.84;5015846;28;20500;-60
2022/01/06 09:37:51;;;;;;;33.90;17.38;;;;;;;9.31;80.99;96379.06;5000274;28;20507;-67
2022/01/06 09:40:18;;;;;;;40.58;17.10;;;;;;;9.58;81.66;96410.94;5022197;28;20053;-63
2022/01/06 09:42:45;;;;;;;29.02;15.02;;;;;;;9.83;80.52;96401.69;5023275;28;20564;-61
2022/01/06 09:45:12;;;;;;;29.25;14.20;;;;;;;10.08;78.61;96402.78;5023828;28;20045;-68
2022/01/06 09:47:40;;;;;;;25.60;11.82;;;;;;;10.16;77.66;96404.38;5016463;28;20060;-67
2022/01/06 09:50:09;;;;;;;18.83;11.05;;;;;;;9.66;76.56;96290.94;5020540;28;20052;-62
2022/01/06 09:52:36;;;;;;;19.55;10.82;;;;;;;10.22;75.83;96344.75;5019677;28;20049;-61
2022/01/06 09:55:04;;;;;;;19.67;9.88;;;;;;;10.09;75.64;96343.47;5018069;28;20172;-61
2022/01/06 09:57:32;;;;;;;24.80;11.65;;;;;;;10.55;76.02;96399.16;5022856;28;20053;-66
2022/01/06 09:59:58;;;;;;;18.60;11.15;;;;;;;9.76;75.57;96257.84;5011715;28;20050;-63
2022/01/06 10:02:33;;;;;;;26.83;13.70;;;;;;;10.25;76.63;96368.91;5023547;28;20056;-62
2022/01/06 10:05:02;;;;;;;28.40;16.02;;;;;;;10.37;76.64;96365.81;5019105;28;20680;-64
2022/01/06 10:07:41;;;;;;;23.10;11.60;;;;;;;10.60;75.22;96346.97;5017725;28;20050;-64
2022/01/06 10:10:11;;;;;;;19.92;11.75;;;;;;;9.27;78.33;96226.22;5030885;28;20049;-61
2022/01/06 10:12:40;;;;;;;24.10;13.27;;;;;;;10.73;77.19;96389.00;5015469;28;20073;-63
2022/01/06 10:15:17;;;;;;;20.08;11.48;;;;;;;11.04;76.44;96387.56;5003945;28;20449;-63
2022/01/06 10:17:45;;;;;;;28.90;13.98;;;;;;;10.46;75.69;96291.50;5003935;28;20058;-61
2022/01/06 10:20:17;;;;;;;25.17;14.40;;;;;;;10.44;76.15;96298.63;5028367;28;20417;-62
2022/01/06 10:22:49;;;;;;;25.88;14.18;;;;;;;11.12;76.04;96392.75;5021891;28;20129;-61
2022/01/06 10:25:17;;;;;;;23.83;14.45;;;;;;;9.83;77.36;96232.22;5022401;28;20053;-61
2022/01/06 10:27:46;;;;;;;31.23;16.40;;;;;;;10.40;77.69;96315.19;5005751;28;20528;-63
2022/01/06 10:30:13;;;;;;;31.75;16.50;;;;;;;11.33;76.62;96436.41;5016811;28;20053;-65
2022/01/06 10:32:41;;;;;;;28.85;16.55;;;;;;;10.78;76.35;96365.66;5018784;28;20099;-66
2022/01/06 10:35:09;;;;;;;40.03;17.20;;;;;;;11.18;77.16;96370.97;5015295;28;20049;-63
2022/01/06 10:37:44;;;;;;;31.27;17.30;;;;;;;11.06;76.21;96313.13;5024106;28;20068;-62
2022/01/06 10:40:18;;;;;;;28.95;14.93;;;;;;;10.89;75.54;96219.69;5012860;28;20052;-63
2022/01/06 10:42:50;;;;;;;30.77;18.58;;;;;;;11.92;74.72;96353.34;5003704;28;20056;-61
2022/01/06 10:45:23;;;;;;;37.58;20.35;;;;;;;12.19;73.98;96379.53;5003767;28;20145;-62
2022/01/06 10:47:52;;;;;;;30.83;19.00;;;;;;;12.25;74.01;96368.81;5004679;28;20062;-62
2022/01/06 10:50:20;;;;;;;28.55;16.42;;;;;;;12.37;73.37;96390.63;5003994;28;20505;-66
2022/01/06 10:52:52;;;;;;;30.40;17.88;;;;;;;12.46;72.79;96379.91;5003823;28;20512;-62
2022/01/06 10:55:23;;;;;;;33.17;18.15;;;;;;;12.50;72.41;96375.16;5020226;28;20550;-61
2022/01/06 10:57:56;;;;;;;32.72;18.17;;;;;;;12.59;72.79;96372.75;4832393;28;5001674;-65
2022/01/06 11:00:29;;;;;;;31.98;19.25;;;;;;;12.71;72.62;96361.19;5023829;28;20068;-67
2022/01/06 11:03:14;;;;;;;39.47;21.85;;;;;;;12.92;71.82;96363.94;5023106;28;20045;-67
2022/01/06 11:05:43;;;;;;;34.13;18.20;;;;;;;11.16;70.61;96040.75;5023324;28;20061;-61
2022/01/06 11:08:10;;;;;;;86.35;46.60;;;;;;;13.19;70.79;96333.66;5023308;28;20049;-63
2022/01/06 11:10:40;;;;;;;48.63;28.10;;;;;;;13.50;68.59;96358.53;5023402;28;20049;-63
2022/01/06 11:13:07;;;;;;;44.63;26.70;;;;;;;13.05;67.02;96265.03;5023656;28;20053;-62
2022/01/06 11:15:34;;;;;;;64.55;32.50;;;;;;;13.55;67.96;96352.56;5023944;28;20547;-61
2022/01/06 11:18:01;;;;;;;47.95;27.45;;;;;;;13.41;67.86;96319.25;5017293;28;20068;-62
2022/01/06 11:20:28;;;;;;;38.40;23.08;;;;;;;13.18;66.97;96287.59;5028586;28;20057;-59
2022/01/06 11:22:58;;;;;;;37.08;21.70;;;;;;;13.68;67.61;96339.78;5027637;28;20049;-60
2022/01/06 11:25:43;;;;;;;37.38;22.10;;;;;;;13.09;68.02;96240.78;5019012;28;20081;-60
2022/01/06 11:28:12;;;;;;;30.13;17.30;;;;;;;13.73;66.40;96341.31;5007841;28;20049;-64
2022/01/06 11:30:52;;;;;;;28.75;17.15;;;;;;;13.34;66.95;96301.81;5015621;28;20046;-60
2022/01/06 11:33:19;;;;;;;33.83;20.38;;;;;;;13.32;67.72;96305.00;5018753;28;20163;-64
2022/01/06 11:35:57;;;;;;;32.85;18.77;;;;;;;13.23;67.95;96279.63;5029288;28;20425;-59